< < Back
Terminal Aerodrome Forecast


Current Version              Previous Versions:   1  2  3  4  5  6  7  8  9  

Terminal Aerodrome Forecast

216
FTUS42 KJAX 061721
TAFGNV
TAF
KGNV 061721Z 0618/0718 03012KT P6SM VCSH SCT030 BKN060
      TEMPO 0618/0620 BKN030
     FM062300 03008KT P6SM SCT040 BKN250
     FM070600 35004KT P6SM SCT250
     FM071400 33010KT P6SM SKC=



Latest METAR

682
SAUS70 KWBC 061700 RRD
MTRGNV
METAR KGNV 061653Z 01009KT 10SM OVC080 27/18 A3009 RMK AO2 SLP186
T02670183


USA.gov is the U.S. government's official web portal to all federal, state and local government web resources and services.